createdAt,value
2022-10-30T00:02:16.971Z,60.39
2022-10-30T00:04:46.686Z,60.52
2022-10-30T00:07:16.749Z,60.54
2022-10-30T00:09:46.249Z,60.86
2022-10-30T00:12:17.883Z,60.43
2022-10-30T00:14:51.699Z,60.75
2022-10-30T00:17:21.262Z,60.87
2022-10-30T00:19:50.810Z,60.82
2022-10-30T00:22:21.054Z,60.90
2022-10-30T00:24:50.849Z,60.99
2022-10-30T00:27:21.059Z,60.85
2022-10-30T00:29:53.445Z,61.08
2022-10-30T00:32:23.046Z,60.92
2022-10-30T00:34:52.611Z,60.92
2022-10-30T00:37:22.479Z,61.29
2022-10-30T00:39:52.213Z,60.82
2022-10-30T00:42:22.756Z,61.15
2022-10-30T00:44:55.402Z,60.90
2022-10-30T00:47:28.770Z,61.66
2022-10-30T00:50:01.397Z,61.43
2022-10-30T00:52:33.435Z,61.58
2022-10-30T00:55:07.073Z,61.69
2022-10-30T00:57:37.400Z,61.52
2022-10-30T01:00:11.505Z,61.98
2022-10-30T01:02:42.298Z,61.77
2022-10-30T01:05:12.830Z,61.76
2022-10-30T01:07:42.388Z,62.01
2022-10-30T01:10:13.094Z,61.81
2022-10-30T01:12:44.010Z,62.06
2022-10-30T01:15:16.549Z,62.02
2022-10-30T01:18:16.730Z,62.05
2022-10-30T01:20:58.333Z,62.11
2022-10-30T01:23:36.731Z,62.41
2022-10-30T01:26:12.665Z,62.88
2022-10-30T01:28:53.488Z,62.82
2022-10-30T01:31:40.485Z,63.18
2022-10-30T01:34:21.034Z,63.15
2022-10-30T01:36:57.611Z,63.92
2022-10-30T01:39:30.058Z,63.59
2022-10-30T01:41:59.825Z,64.02
2022-10-30T01:44:32.675Z,64.04
2022-10-30T01:47:15.697Z,64.18
2022-10-30T01:50:06.252Z,64.28
2022-10-30T01:52:42.316Z,64.26
2022-10-30T01:55:19.367Z,64.23
2022-10-30T01:57:56.174Z,64.48
2022-10-30T02:00:26.111Z,64.57
2022-10-30T02:02:58.505Z,64.25
2022-10-30T02:05:32.790Z,64.54
2022-10-30T02:08:02.552Z,64.51
2022-10-30T02:10:34.796Z,64.71
2022-10-30T02:13:05.090Z,64.98
2022-10-30T02:15:35.021Z,65.16
2022-10-30T02:18:07.884Z,65.19
2022-10-30T02:20:40.542Z,65.56
2022-10-30T02:23:13.603Z,66.05
2022-10-30T02:25:43.358Z,66.03
2022-10-30T02:28:13.218Z,66.10
2022-10-30T02:30:44.214Z,66.37
2022-10-30T02:33:14.094Z,66.08
2022-10-30T02:35:46.787Z,66.18
2022-10-30T02:38:16.453Z,66.40
2022-10-30T02:40:46.326Z,66.53
2022-10-30T02:43:15.882Z,66.60
2022-10-30T02:45:45.903Z,66.51
2022-10-30T02:48:15.552Z,66.71
2022-10-30T02:50:48.265Z,66.84
2022-10-30T02:53:18.118Z,67.34
2022-10-30T02:55:49.068Z,67.14
2022-10-30T02:58:18.686Z,67.73
2022-10-30T03:00:48.712Z,67.85
2022-10-30T03:03:21.409Z,67.91
2022-10-30T03:05:56.298Z,68.20
2022-10-30T03:08:25.945Z,68.20
2022-10-30T03:10:55.628Z,68.13
2022-10-30T03:13:27.063Z,68.55
2022-10-30T03:16:02.703Z,68.27
2022-10-30T03:18:34.583Z,68.41
2022-10-30T03:21:14.782Z,68.85
2022-10-30T03:23:44.297Z,68.77
2022-10-30T03:26:14.160Z,68.59
2022-10-30T03:28:53.717Z,69.28
2022-10-30T03:31:23.970Z,69.39
2022-10-30T03:34:10.541Z,69.42
2022-10-30T03:36:42.894Z,70.15
2022-10-30T03:39:12.771Z,70.35
2022-10-30T03:41:45.987Z,70.34
2022-10-30T03:44:15.682Z,70.88
2022-10-30T03:46:45.608Z,71.13
2022-10-30T03:49:26.685Z,71.19
2022-10-30T03:52:00.006Z,71.49
2022-10-30T03:54:29.984Z,71.60
2022-10-30T03:56:59.635Z,72.09
2022-10-30T03:59:31.542Z,72.16
2022-10-30T04:02:23.753Z,72.34
2022-10-30T04:04:53.372Z,72.79
2022-10-30T04:07:25.604Z,72.94
2022-10-30T04:09:55.983Z,73.54
2022-10-30T04:12:25.639Z,73.76
2022-10-30T04:14:56.929Z,74.06
2022-10-30T04:17:26.838Z,74.25
2022-10-30T04:19:56.583Z,74.40
2022-10-30T04:22:29.041Z,74.72
2022-10-30T04:24:59.139Z,75.07
2022-10-30T04:27:28.788Z,75.46
2022-10-30T04:29:58.855Z,75.45
2022-10-30T04:32:29.125Z,75.67
2022-10-30T04:34:59.023Z,75.90
2022-10-30T04:37:31.404Z,76.12
2022-10-30T04:40:00.986Z,76.38
2022-10-30T04:42:35.237Z,76.59
2022-10-30T04:45:05.344Z,76.91
2022-10-30T04:47:35.055Z,76.91
2022-10-30T04:50:04.996Z,76.93
2022-10-30T04:52:38.296Z,76.96
2022-10-30T04:55:10.161Z,77.09
2022-10-30T04:57:40.627Z,77.03
2022-10-30T05:00:12.160Z,76.89
2022-10-30T05:05:32.351Z,76.50
2022-10-30T05:08:04.583Z,76.77
2022-10-30T05:10:34.219Z,76.56
2022-10-30T05:13:03.786Z,76.74
2022-10-30T05:15:33.671Z,76.50
2022-10-30T05:18:03.586Z,76.35
2022-10-30T05:20:33.842Z,76.30
2022-10-30T05:23:06.412Z,76.09
2022-10-30T05:25:36.061Z,76.20
2022-10-30T05:28:09.405Z,76.00
2022-10-30T05:30:45.940Z,76.21
2022-10-30T05:33:29.606Z,76.09
2022-10-30T05:35:59.579Z,76.38
2022-10-30T05:38:33.061Z,76.32
2022-10-30T05:41:03.616Z,76.45
2022-10-30T05:43:33.515Z,76.44
2022-10-30T05:46:03.159Z,76.52
2022-10-30T05:48:33.221Z,76.72
2022-10-30T05:51:04.420Z,76.59
2022-10-30T05:53:36.643Z,76.70
2022-10-30T05:56:07.319Z,76.90
2022-10-30T05:58:38.155Z,76.71
2022-10-30T06:01:09.930Z,77.03
2022-10-30T06:03:46.491Z,76.97
2022-10-30T06:06:16.096Z,77.29
2022-10-30T06:08:49.376Z,77.75
2022-10-30T06:11:48.204Z,77.46
2022-10-30T06:14:18.453Z,77.90
2022-10-30T06:16:54.646Z,77.89
2022-10-30T06:19:36.704Z,77.56
2022-10-30T06:22:37.208Z,77.64
2022-10-30T06:25:18.857Z,78.10
2022-10-30T06:27:56.619Z,78.01
2022-10-30T06:30:26.574Z,78.40
2022-10-30T06:33:00.165Z,78.49
2022-10-30T06:35:30.898Z,78.56
2022-10-30T06:38:01.135Z,79.04
2022-10-30T06:40:35.217Z,78.89
2022-10-30T06:43:21.014Z,79.38
2022-10-30T06:46:00.530Z,79.45
2022-10-30T06:48:31.316Z,79.73
2022-10-30T06:51:03.486Z,80.07
2022-10-30T06:53:35.924Z,80.15
2022-10-30T06:56:26.578Z,80.06
2022-10-30T06:59:08.084Z,80.06
2022-10-30T07:02:00.284Z,80.17
2022-10-30T07:04:41.439Z,80.09
2022-10-30T07:07:11.191Z,79.79
2022-10-30T07:09:40.844Z,79.98
2022-10-30T07:12:13.195Z,79.69
2022-10-30T07:14:51.080Z,79.10
2022-10-30T07:17:40.954Z,78.91
2022-10-30T07:20:22.630Z,78.66
2022-10-30T07:22:52.597Z,78.39
2022-10-30T07:25:22.540Z,78.08
2022-10-30T07:28:15.101Z,77.56
2022-10-30T07:30:50.670Z,77.05
2022-10-30T07:33:40.769Z,76.59
2022-10-30T07:36:36.293Z,75.71
2022-10-30T07:39:23.523Z,74.77
2022-10-30T07:42:05.690Z,74.24
2022-10-30T07:44:58.408Z,73.24
2022-10-30T07:48:00.364Z,72.54
2022-10-30T07:51:02.615Z,71.21
2022-10-30T07:53:32.624Z,69.95
2022-10-30T07:56:02.517Z,69.19
2022-10-30T07:59:04.207Z,68.01
2022-10-30T08:02:00.890Z,66.17
2022-10-30T08:04:37.482Z,64.52
2022-10-30T08:07:19.657Z,63.49
2022-10-30T08:09:49.630Z,61.25
2022-10-30T08:12:20.064Z,60.19
2022-10-30T08:14:49.807Z,58.00
2022-10-30T08:17:22.303Z,57.01
2022-10-30T08:19:52.687Z,55.79
2022-10-30T08:22:22.465Z,55.04
2022-10-30T08:25:00.676Z,54.96
2022-10-30T08:27:33.480Z,53.85
2022-10-30T08:30:03.266Z,52.41
2022-10-30T08:32:37.665Z,51.55
2022-10-30T08:35:30.388Z,51.58
2022-10-30T08:38:03.434Z,50.05
2022-10-30T08:40:33.726Z,49.26
2022-10-30T08:43:06.971Z,48.60
2022-10-30T08:45:37.353Z,47.63
2022-10-30T08:48:16.499Z,47.14
2022-10-30T08:50:47.544Z,46.29
2022-10-30T08:53:23.674Z,45.92
2022-10-30T08:55:56.131Z,45.66
2022-10-30T08:58:34.808Z,45.97
2022-10-30T09:01:05.680Z,46.12
2022-10-30T09:04:16.264Z,45.21
2022-10-30T09:07:06.400Z,45.19
2022-10-30T09:10:00.417Z,44.52
2022-10-30T09:12:33.933Z,43.96
2022-10-30T09:15:04.237Z,43.83
2022-10-30T09:17:42.240Z,42.98
2022-10-30T09:20:14.692Z,42.94
2022-10-30T09:22:44.544Z,42.42
2022-10-30T09:25:14.425Z,41.72
2022-10-30T09:27:54.699Z,41.77
2022-10-30T09:30:27.731Z,41.60
2022-10-30T09:33:00.490Z,41.47
2022-10-30T09:35:52.643Z,41.22
2022-10-30T09:38:22.253Z,41.54
2022-10-30T09:41:16.160Z,41.19
2022-10-30T09:43:47.530Z,42.35
2022-10-30T09:46:25.846Z,41.81
2022-10-30T09:49:05.929Z,41.70
2022-10-30T09:51:53.586Z,41.37
2022-10-30T09:54:35.533Z,40.79
2022-10-30T09:57:09.168Z,40.68
2022-10-30T09:59:40.948Z,41.16
2022-10-30T10:02:24.166Z,41.70
2022-10-30T10:04:56.987Z,42.15
2022-10-30T10:07:55.779Z,42.50
2022-10-30T10:10:43.962Z,43.92
2022-10-30T10:13:29.652Z,45.22
2022-10-30T10:16:02.302Z,46.11
2022-10-30T10:18:35.799Z,46.54
2022-10-30T10:21:07.994Z,47.38
2022-10-30T10:23:47.213Z,47.72
2022-10-30T10:26:27.763Z,48.48
2022-10-30T10:29:18.112Z,49.75
2022-10-30T10:31:56.949Z,50.23
2022-10-30T10:34:46.230Z,51.03
2022-10-30T10:37:23.147Z,51.64
2022-10-30T10:42:41.696Z,52.32
2022-10-30T10:45:23.899Z,52.72
2022-10-30T10:48:26.873Z,52.91
2022-10-30T10:50:59.833Z,53.05
2022-10-30T10:53:33.359Z,52.90
2022-10-30T10:56:05.932Z,53.11
2022-10-30T10:58:41.995Z,53.22
2022-10-30T11:01:16.436Z,53.56
2022-10-30T11:03:53.482Z,53.34
2022-10-30T11:06:24.497Z,53.47
2022-10-30T11:08:55.599Z,54.19
2022-10-30T11:11:28.533Z,54.00
2022-10-30T11:13:58.451Z,54.07
2022-10-30T11:16:32.334Z,54.05
2022-10-30T11:19:04.608Z,53.65
2022-10-30T11:21:36.384Z,53.86
2022-10-30T11:24:06.194Z,53.72
2022-10-30T11:26:38.576Z,54.42
2022-10-30T11:29:09.543Z,54.51
2022-10-30T11:31:41.500Z,54.68
2022-10-30T11:34:32.062Z,54.03
2022-10-30T11:37:01.860Z,54.21
2022-10-30T11:39:32.618Z,54.16
2022-10-30T11:42:08.547Z,54.26
2022-10-30T11:44:40.305Z,54.76
2022-10-30T11:47:10.827Z,54.41
2022-10-30T11:49:47.730Z,54.74
2022-10-30T11:52:19.774Z,54.98
2022-10-30T11:54:51.781Z,54.53
2022-10-30T11:57:33.746Z,54.03
2022-10-30T12:00:05.608Z,54.36
2022-10-30T12:02:45.970Z,54.18
2022-10-30T12:05:34.819Z,54.14
2022-10-30T12:08:20.732Z,53.89
2022-10-30T12:10:59.636Z,53.85
2022-10-30T12:13:37.294Z,54.09
2022-10-30T12:16:14.702Z,54.20
2022-10-30T12:18:45.320Z,54.05
2022-10-30T12:21:20.363Z,53.63
2022-10-30T12:23:54.363Z,53.71
2022-10-30T12:26:24.557Z,53.66
2022-10-30T12:29:01.173Z,53.13
2022-10-30T12:31:38.327Z,53.36
2022-10-30T12:34:15.610Z,52.53
2022-10-30T12:36:50.157Z,52.54
2022-10-30T12:39:24.840Z,52.48
2022-10-30T12:42:00.746Z,52.07
2022-10-30T12:44:36.243Z,52.41
2022-10-30T12:47:10.759Z,52.27
2022-10-30T12:49:43.649Z,51.97
2022-10-30T12:52:16.802Z,51.93
2022-10-30T12:54:53.295Z,51.77
2022-10-30T12:57:27.252Z,51.47
2022-10-30T13:00:05.187Z,51.36
2022-10-30T13:02:49.522Z,51.16
2022-10-30T13:05:29.412Z,51.19
2022-10-30T13:08:16.113Z,51.39
2022-10-30T13:10:48.907Z,50.53
2022-10-30T13:13:21.210Z,50.49
2022-10-30T13:15:55.578Z,50.74
2022-10-30T13:18:26.924Z,50.31
2022-10-30T13:21:06.861Z,50.26
2022-10-30T13:23:45.728Z,49.66
2022-10-30T13:26:22.010Z,50.26
2022-10-30T13:28:57.744Z,49.60
2022-10-30T13:31:35.395Z,49.64
2022-10-30T13:34:09.787Z,49.71
2022-10-30T13:39:36.634Z,49.39
2022-10-30T13:42:22.065Z,49.52
2022-10-30T13:45:01.958Z,50.05
2022-10-30T13:47:42.798Z,49.90
2022-10-30T13:50:22.179Z,50.03
2022-10-30T13:52:54.599Z,50.23
2022-10-30T13:55:26.580Z,50.10
2022-10-30T13:58:00.510Z,50.46
2022-10-30T14:00:37.255Z,50.45
2022-10-30T14:03:17.618Z,50.38
2022-10-30T14:05:51.673Z,50.82
2022-10-30T14:08:28.720Z,50.06
2022-10-30T14:11:00.924Z,50.12
2022-10-30T14:13:31.918Z,50.79
2022-10-30T14:16:04.642Z,50.70
2022-10-30T14:18:46.639Z,50.89
2022-10-30T14:21:44.128Z,51.10
2022-10-30T14:24:16.305Z,51.25
2022-10-30T14:26:52.898Z,51.12
2022-10-30T14:29:44.442Z,51.48
2022-10-30T14:32:35.618Z,51.44
2022-10-30T14:35:43.231Z,51.36
2022-10-30T14:38:26.579Z,51.51
2022-10-30T14:41:17.894Z,51.20
2022-10-30T14:43:53.291Z,51.46
2022-10-30T14:46:28.465Z,51.71
2022-10-30T14:49:04.949Z,52.04
2022-10-30T14:51:43.022Z,52.06
2022-10-30T14:54:18.464Z,52.25
2022-10-30T14:56:50.102Z,51.87
2022-10-30T14:59:29.123Z,52.60
2022-10-30T15:02:04.708Z,52.45
2022-10-30T15:04:43.483Z,52.97
2022-10-30T15:07:23.415Z,53.20
2022-10-30T15:10:03.497Z,53.41
2022-10-30T15:13:03.361Z,53.26
2022-10-30T15:15:33.582Z,53.57
2022-10-30T15:18:06.491Z,53.74
2022-10-30T15:20:36.858Z,54.20
2022-10-30T15:23:12.681Z,53.94
2022-10-30T15:25:49.205Z,54.12
2022-10-30T15:28:21.699Z,53.92
2022-10-30T15:31:05.236Z,54.45
2022-10-30T15:33:37.217Z,54.62
2022-10-30T15:36:07.355Z,54.60
2022-10-30T15:38:39.794Z,54.42
2022-10-30T15:41:12.397Z,54.86
2022-10-30T15:43:43.895Z,54.27
2022-10-30T15:46:14.110Z,54.89
2022-10-30T15:48:47.675Z,54.36
2022-10-30T15:51:19.566Z,54.81
2022-10-30T15:53:54.044Z,54.80
2022-10-30T15:56:30.296Z,54.50
2022-10-30T15:59:02.851Z,54.68
2022-10-30T16:01:37.068Z,54.49
2022-10-30T16:04:07.695Z,55.09
2022-10-30T16:06:37.287Z,54.87
2022-10-30T16:09:16.952Z,54.92
2022-10-30T16:11:47.127Z,55.54
2022-10-30T16:14:18.870Z,55.31
2022-10-30T16:16:48.596Z,55.88
2022-10-30T16:19:27.993Z,56.23
2022-10-30T16:21:59.514Z,56.40
2022-10-30T16:24:34.173Z,56.71
2022-10-30T16:27:08.644Z,56.96
2022-10-30T16:29:38.576Z,57.70
2022-10-30T16:32:14.878Z,57.87
2022-10-30T16:34:45.219Z,58.09
2022-10-30T16:37:17.828Z,58.56
2022-10-30T16:39:51.421Z,58.80
2022-10-30T16:42:24.775Z,58.87
2022-10-30T16:44:56.859Z,59.49
2022-10-30T16:47:27.873Z,59.35
2022-10-30T16:49:58.985Z,59.65
2022-10-30T16:52:30.426Z,60.11
2022-10-30T16:55:05.334Z,60.36
2022-10-30T16:57:38.422Z,60.36
2022-10-30T17:00:09.109Z,60.13
2022-10-30T17:02:39.921Z,60.72
2022-10-30T17:05:13.793Z,60.56
2022-10-30T17:07:56.919Z,60.60
2022-10-30T17:10:36.868Z,60.98
2022-10-30T17:13:32.415Z,61.35
2022-10-30T17:16:03.118Z,61.18
2022-10-30T17:18:33.318Z,61.24
2022-10-30T17:21:07.738Z,61.60
2022-10-30T17:23:38.433Z,62.33
2022-10-30T17:26:14.979Z,62.43
2022-10-30T17:28:45.240Z,62.73
2022-10-30T17:31:34.394Z,63.21
2022-10-30T17:34:14.258Z,63.14
2022-10-30T17:36:44.010Z,63.31
2022-10-30T17:39:13.759Z,63.68
2022-10-30T17:41:46.221Z,63.78
2022-10-30T17:44:20.782Z,63.72
2022-10-30T17:46:52.073Z,63.76
2022-10-30T17:49:27.868Z,63.68
2022-10-30T17:51:57.815Z,64.00
2022-10-30T17:54:27.576Z,63.75
2022-10-30T17:57:00.547Z,63.78
2022-10-30T17:59:30.071Z,63.63
2022-10-30T18:02:01.271Z,63.53
2022-10-30T18:04:31.023Z,63.88
2022-10-30T18:07:00.575Z,63.97
2022-10-30T18:09:30.116Z,64.14
2022-10-30T18:12:02.326Z,64.04
2022-10-30T18:14:31.906Z,64.20
2022-10-30T18:17:01.670Z,63.74
2022-10-30T18:19:31.223Z,64.25
2022-10-30T18:22:00.821Z,64.44
2022-10-30T18:24:30.369Z,64.36
2022-10-30T18:27:02.573Z,64.79
2022-10-30T18:29:32.116Z,64.83
2022-10-30T18:32:05.494Z,65.11
2022-10-30T18:34:38.171Z,65.20
2022-10-30T18:37:07.733Z,65.52
2022-10-30T18:42:29.808Z,65.81
2022-10-30T18:44:59.376Z,66.12
2022-10-30T18:47:28.928Z,66.34
2022-10-30T18:49:58.659Z,66.71
2022-10-30T18:52:28.243Z,66.55
2022-10-30T18:54:57.971Z,66.91
2022-10-30T18:57:30.082Z,67.05
2022-10-30T19:00:00.799Z,67.35
2022-10-30T19:02:30.441Z,67.59
2022-10-30T19:05:00.104Z,67.54
2022-10-30T19:07:29.662Z,67.79
2022-10-30T19:09:59.609Z,67.95
2022-10-30T19:12:35.476Z,68.10
2022-10-30T19:15:05.778Z,68.37
2022-10-30T19:17:35.348Z,68.51
2022-10-30T19:20:04.903Z,68.40
2022-10-30T19:22:34.438Z,68.58
2022-10-30T19:25:04.844Z,68.51
2022-10-30T19:27:37.064Z,68.52
2022-10-30T19:30:07.484Z,68.71
2022-10-30T19:32:37.475Z,69.00
2022-10-30T19:35:07.927Z,69.26
2022-10-30T19:37:37.707Z,69.01
2022-10-30T19:40:28.366Z,69.63
2022-10-30T19:43:01.136Z,69.49
2022-10-30T19:45:32.635Z,69.66
2022-10-30T19:48:03.800Z,70.23
2022-10-30T19:50:37.379Z,70.69
2022-10-30T19:53:08.192Z,71.07
2022-10-30T19:55:39.407Z,71.48
2022-10-30T19:58:15.453Z,71.70
2022-10-30T20:00:46.670Z,71.90
2022-10-30T20:03:18.874Z,72.46
2022-10-30T20:05:50.422Z,72.55
2022-10-30T20:08:22.403Z,72.93
2022-10-30T20:10:53.174Z,72.93
2022-10-30T20:13:26.297Z,73.34
2022-10-30T20:15:57.240Z,73.42
2022-10-30T20:18:30.193Z,73.73
2022-10-30T20:21:01.362Z,74.00
2022-10-30T20:23:31.328Z,74.22
2022-10-30T20:26:03.035Z,74.43
2022-10-30T20:28:38.832Z,74.80
2022-10-30T20:31:09.077Z,74.73
2022-10-30T20:33:38.926Z,74.97
2022-10-30T20:36:09.130Z,75.05
2022-10-30T20:38:40.137Z,75.32
2022-10-30T20:41:10.364Z,75.37
2022-10-30T20:43:42.540Z,75.91
2022-10-30T20:46:12.713Z,75.89
2022-10-30T20:48:42.278Z,75.93
2022-10-30T20:51:13.072Z,76.31
2022-10-30T20:53:42.648Z,76.73
2022-10-30T20:56:12.298Z,76.80
2022-10-30T20:58:44.712Z,76.93
2022-10-30T21:01:14.387Z,77.06
2022-10-30T21:03:44.043Z,77.30
2022-10-30T21:06:15.569Z,77.52
2022-10-30T21:08:45.127Z,77.69
2022-10-30T21:11:14.710Z,77.69
2022-10-30T21:13:47.312Z,77.96
2022-10-30T21:16:16.863Z,78.30
2022-10-30T21:18:46.453Z,78.58
2022-10-30T21:21:22.849Z,78.77
2022-10-30T21:23:56.675Z,78.78
2022-10-30T21:26:26.251Z,78.91
2022-10-30T21:28:58.956Z,78.86
2022-10-30T21:31:28.530Z,78.98
2022-10-30T21:33:58.130Z,79.23
2022-10-30T21:36:27.739Z,79.29
2022-10-30T21:38:57.732Z,79.79
2022-10-30T21:41:27.408Z,79.83
2022-10-30T21:44:01.153Z,80.01
2022-10-30T21:46:32.178Z,80.16
2022-10-30T21:49:06.050Z,80.58
2022-10-30T21:51:36.143Z,80.42
2022-10-30T21:54:05.783Z,80.54
2022-10-30T21:56:36.184Z,80.80
2022-10-30T21:59:09.532Z,81.15
2022-10-30T22:01:40.904Z,81.20
2022-10-30T22:04:13.032Z,81.32
2022-10-30T22:06:44.586Z,81.56
2022-10-30T22:09:17.539Z,81.50
2022-10-30T22:11:47.531Z,81.48
2022-10-30T22:14:19.687Z,81.83
2022-10-30T22:16:50.772Z,81.82
2022-10-30T22:19:20.542Z,82.01
2022-10-30T22:21:50.100Z,82.17
2022-10-30T22:24:19.763Z,82.32
2022-10-30T22:26:49.281Z,82.11
2022-10-30T22:29:21.470Z,82.12
2022-10-30T22:31:52.058Z,82.11
2022-10-30T22:34:21.600Z,82.00
2022-10-30T22:36:51.154Z,81.94
2022-10-30T22:39:20.970Z,81.90
2022-10-30T22:41:50.535Z,81.75
2022-10-30T22:44:23.669Z,81.96
2022-10-30T22:46:53.247Z,81.82
2022-10-30T22:49:23.311Z,81.81
2022-10-30T22:51:52.856Z,81.92
2022-10-30T22:54:22.393Z,81.88
2022-10-30T22:56:51.935Z,82.13
2022-10-30T22:59:24.115Z,82.03
2022-10-30T23:01:53.725Z,82.00
2022-10-30T23:04:23.418Z,82.12
2022-10-30T23:06:52.979Z,82.43
2022-10-30T23:09:23.768Z,82.55
2022-10-30T23:11:53.498Z,82.58
2022-10-30T23:14:25.858Z,82.56
2022-10-30T23:16:55.438Z,82.67
2022-10-30T23:19:25.020Z,82.65
2022-10-30T23:21:57.910Z,82.66
2022-10-30T23:24:27.966Z,82.80
2022-10-30T23:26:57.522Z,82.84
2022-10-30T23:29:29.679Z,82.92
2022-10-30T23:31:59.183Z,82.87
2022-10-30T23:34:28.736Z,82.79
2022-10-30T23:37:00.875Z,82.81
2022-10-30T23:39:31.653Z,83.08
2022-10-30T23:42:01.204Z,82.94
2022-10-30T23:44:33.396Z,82.78
2022-10-30T23:47:02.953Z,82.81
2022-10-30T23:49:34.141Z,82.78
2022-10-30T23:52:04.023Z,82.86
2022-10-30T23:54:33.845Z,82.94
2022-10-30T23:57:03.387Z,82.92
2022-10-30T23:59:35.509Z,83.12
